sensor_id;sensor_type;location;lat;lon;timestamp;temperature;humidity
36132;DHT22;22185;48.738;9.324;2023-04-01T00:00:45;9.20;99.90
36132;DHT22;22185;48.738;9.324;2023-04-01T00:02:47;9.20;99.90
36132;DHT22;22185;48.738;9.324;2023-04-01T00:04:49;9.20;99.90
36132;DHT22;22185;48.738;9.324;2023-04-01T00:06:51;9.20;99.90
36132;DHT22;22185;48.738;9.324;2023-04-01T00:08:53;9.20;99.90
36132;DHT22;22185;48.738;9.324;2023-04-01T00:10:55;9.30;99.90
36132;DHT22;22185;48.738;9.324;2023-04-01T00:12:58;9.30;99.90
36132;DHT22;22185;48.738;9.324;2023-04-01T00:15:00;9.30;99.90
36132;DHT22;22185;48.738;9.324;2023-04-01T00:17:02;9.30;99.90
36132;DHT22;22185;48.738;9.324;2023-04-01T00:19:04;9.30;99.90
36132;DHT22;22185;48.738;9.324;2023-04-01T00:21:06;9.30;99.90
36132;DHT22;22185;48.738;9.324;2023-04-01T00:23:08;9.30;99.90
36132;DHT22;22185;48.738;9.324;2023-04-01T00:25:12;9.30;99.90
36132;DHT22;22185;48.738;9.324;2023-04-01T00:27:14;9.30;99.90
36132;DHT22;22185;48.738;9.324;2023-04-01T00:29:16;9.40;99.90
36132;DHT22;22185;48.738;9.324;2023-04-01T00:31:18;9.30;99.90
36132;DHT22;22185;48.738;9.324;2023-04-01T00:33:20;9.30;99.90
36132;DHT22;22185;48.738;9.324;2023-04-01T00:35:22;9.30;99.90
36132;DHT22;22185;48.738;9.324;2023-04-01T00:37:24;9.30;99.90
36132;DHT22;22185;48.738;9.324;2023-04-01T00:39:28;9.30;99.90
36132;DHT22;22185;48.738;9.324;2023-04-01T00:41:30;9.30;99.90
36132;DHT22;22185;48.738;9.324;2023-04-01T00:43:31;9.20;99.90
36132;DHT22;22185;48.738;9.324;2023-04-01T00:45:38;9.20;99.90
36132;DHT22;22185;48.738;9.324;2023-04-01T00:47:40;9.20;99.90
36132;DHT22;22185;48.738;9.324;2023-04-01T00:49:42;9.30;99.90
36132;DHT22;22185;48.738;9.324;2023-04-01T00:51:45;9.30;99.90
36132;DHT22;22185;48.738;9.324;2023-04-01T00:53:50;9.30;99.90
36132;DHT22;22185;48.738;9.324;2023-04-01T00:56:00;9.40;99.90
36132;DHT22;22185;48.738;9.324;2023-04-01T00:58:03;9.30;99.90
36132;DHT22;22185;48.738;9.324;2023-04-01T01:00:07;9.30;99.90
36132;DHT22;22185;48.738;9.324;2023-04-01T01:02:12;9.30;99.90
36132;DHT22;22185;48.738;9.324;2023-04-01T01:04:24;9.30;99.90
36132;DHT22;22185;48.738;9.324;2023-04-01T01:10:39;9.30;99.90
36132;DHT22;22185;48.738;9.324;2023-04-01T01:16:54;9.30;99.90
36132;DHT22;22185;48.738;9.324;2023-04-01T01:27:24;9.20;99.90
36132;DHT22;22185;48.738;9.324;2023-04-01T01:31:42;9.30;99.90
36132;DHT22;22185;48.738;9.324;2023-04-01T01:35:54;9.30;99.90
36132;DHT22;22185;48.738;9.324;2023-04-01T01:37:58;9.30;99.90
36132;DHT22;22185;48.738;9.324;2023-04-01T01:40:03;9.30;99.90
36132;DHT22;22185;48.738;9.324;2023-04-01T01:42:06;9.30;99.90
36132;DHT22;22185;48.738;9.324;2023-04-01T01:44:09;9.20;99.90
36132;DHT22;22185;48.738;9.324;2023-04-01T01:46:15;9.20;99.90
36132;DHT22;22185;48.738;9.324;2023-04-01T01:48:18;9.20;99.90
36132;DHT22;22185;48.738;9.324;2023-04-01T01:50:21;9.20;99.90
36132;DHT22;22185;48.738;9.324;2023-04-01T01:52:23;9.20;99.90
36132;DHT22;22185;48.738;9.324;2023-04-01T01:54:25;9.20;99.90
36132;DHT22;22185;48.738;9.324;2023-04-01T01:56:27;9.20;99.90
36132;DHT22;22185;48.738;9.324;2023-04-01T01:58:32;9.20;99.90
36132;DHT22;22185;48.738;9.324;2023-04-01T02:00:36;9.20;99.90
36132;DHT22;22185;48.738;9.324;2023-04-01T02:02:41;9.10;99.90
36132;DHT22;22185;48.738;9.324;2023-04-01T02:04:44;9.10;99.90
36132;DHT22;22185;48.738;9.324;2023-04-01T02:06:56;9.00;99.90
36132;DHT22;22185;48.738;9.324;2023-04-01T02:09:00;9.00;99.90
36132;DHT22;22185;48.738;9.324;2023-04-01T02:11:06;9.00;99.90
36132;DHT22;22185;48.738;9.324;2023-04-01T02:13:19;8.90;99.90
36132;DHT22;22185;48.738;9.324;2023-04-01T02:15:23;8.90;99.90
36132;DHT22;22185;48.738;9.324;2023-04-01T02:17:27;8.90;99.90
36132;DHT22;22185;48.738;9.324;2023-04-01T02:19:36;8.90;99.90
36132;DHT22;22185;48.738;9.324;2023-04-01T02:21:39;9.00;99.90
36132;DHT22;22185;48.738;9.324;2023-04-01T02:23:42;9.00;99.90
36132;DHT22;22185;48.738;9.324;2023-04-01T02:25:45;9.00;99.90
36132;DHT22;22185;48.738;9.324;2023-04-01T02:27:47;9.00;99.90
36132;DHT22;22185;48.738;9.324;2023-04-01T02:29:50;9.00;99.90
36132;DHT22;22185;48.738;9.324;2023-04-01T02:31:51;9.00;99.90
36132;DHT22;22185;48.738;9.324;2023-04-01T02:33:54;8.90;99.90
36132;DHT22;22185;48.738;9.324;2023-04-01T02:35:56;8.90;99.90
36132;DHT22;22185;48.738;9.324;2023-04-01T02:37:58;8.90;99.90
36132;DHT22;22185;48.738;9.324;2023-04-01T02:40:00;8.90;99.90
36132;DHT22;22185;48.738;9.324;2023-04-01T02:42:02;9.00;99.90
36132;DHT22;22185;48.738;9.324;2023-04-01T02:44:04;8.90;99.90
36132;DHT22;22185;48.738;9.324;2023-04-01T02:46:06;8.90;99.90
36132;DHT22;22185;48.738;9.324;2023-04-01T02:48:07;8.90;99.90
36132;DHT22;22185;48.738;9.324;2023-04-01T02:50:09;9.00;99.90
36132;DHT22;22185;48.738;9.324;2023-04-01T02:52:11;9.00;99.90
36132;DHT22;22185;48.738;9.324;2023-04-01T02:54:12;8.90;99.90
36132;DHT22;22185;48.738;9.324;2023-04-01T02:56:14;8.80;99.90
36132;DHT22;22185;48.738;9.324;2023-04-01T02:58:16;8.80;99.90
36132;DHT22;22185;48.738;9.324;2023-04-01T03:00:19;8.90;99.90
36132;DHT22;22185;48.738;9.324;2023-04-01T03:02:20;8.80;99.90
36132;DHT22;22185;48.738;9.324;2023-04-01T03:04:22;8.80;99.90
36132;DHT22;22185;48.738;9.324;2023-04-01T03:06:24;8.80;99.90
36132;DHT22;22185;48.738;9.324;2023-04-01T03:08:25;8.70;99.90
36132;DHT22;22185;48.738;9.324;2023-04-01T03:10:27;8.70;99.90
36132;DHT22;22185;48.738;9.324;2023-04-01T03:12:29;8.70;99.90
36132;DHT22;22185;48.738;9.324;2023-04-01T03:14:30;8.70;99.90
36132;DHT22;22185;48.738;9.324;2023-04-01T03:16:32;8.70;99.90
36132;DHT22;22185;48.738;9.324;2023-04-01T03:18:34;8.60;99.90
36132;DHT22;22185;48.738;9.324;2023-04-01T03:20:35;8.70;99.90
36132;DHT22;22185;48.738;9.324;2023-04-01T03:22:37;8.80;99.90
36132;DHT22;22185;48.738;9.324;2023-04-01T03:24:43;8.80;99.90
36132;DHT22;22185;48.738;9.324;2023-04-01T03:26:44;8.80;99.90
36132;DHT22;22185;48.738;9.324;2023-04-01T03:28:46;8.70;99.90
36132;DHT22;22185;48.738;9.324;2023-04-01T03:30:48;8.60;99.90
36132;DHT22;22185;48.738;9.324;2023-04-01T03:32:51;8.60;99.90
36132;DHT22;22185;48.738;9.324;2023-04-01T03:34:52;8.60;99.90
36132;DHT22;22185;48.738;9.324;2023-04-01T03:36:54;8.60;99.90
36132;DHT22;22185;48.738;9.324;2023-04-01T03:38:55;8.60;99.90
36132;DHT22;22185;48.738;9.324;2023-04-01T03:40:59;8.60;99.90
36132;DHT22;22185;48.738;9.324;2023-04-01T03:43:01;8.60;99.90
36132;DHT22;22185;48.738;9.324;2023-04-01T03:45:03;8.70;99.90
36132;DHT22;22185;48.738;9.324;2023-04-01T03:47:05;8.70;99.90
36132;DHT22;22185;48.738;9.324;2023-04-01T03:49:08;8.70;99.90
36132;DHT22;22185;48.738;9.324;2023-04-01T03:51:12;8.80;99.90
36132;DHT22;22185;48.738;9.324;2023-04-01T03:53:14;8.70;99.90
36132;DHT22;22185;48.738;9.324;2023-04-01T03:55:16;8.70;99.90
36132;DHT22;22185;48.738;9.324;2023-04-01T03:57:19;8.70;99.90
36132;DHT22;22185;48.738;9.324;2023-04-01T03:59:36;8.60;99.90
36132;DHT22;22185;48.738;9.324;2023-04-01T04:01:38;8.60;99.90
36132;DHT22;22185;48.738;9.324;2023-04-01T04:03:40;8.60;99.90
36132;DHT22;22185;48.738;9.324;2023-04-01T04:05:48;8.60;99.90
36132;DHT22;22185;48.738;9.324;2023-04-01T04:07:50;8.50;99.90
36132;DHT22;22185;48.738;9.324;2023-04-01T04:09:52;8.50;99.90
36132;DHT22;22185;48.738;9.324;2023-04-01T04:11:54;8.50;99.90
36132;DHT22;22185;48.738;9.324;2023-04-01T04:13:55;8.40;99.90
36132;DHT22;22185;48.738;9.324;2023-04-01T04:15:58;8.40;99.90
36132;DHT22;22185;48.738;9.324;2023-04-01T04:18:00;8.40;99.90
36132;DHT22;22185;48.738;9.324;2023-04-01T04:20:02;8.30;99.90
36132;DHT22;22185;48.738;9.324;2023-04-01T04:22:04;8.30;99.90
36132;DHT22;22185;48.738;9.324;2023-04-01T04:24:05;8.30;99.90
36132;DHT22;22185;48.738;9.324;2023-04-01T04:26:08;8.30;99.90
36132;DHT22;22185;48.738;9.324;2023-04-01T04:28:09;8.40;99.90
36132;DHT22;22185;48.738;9.324;2023-04-01T04:30:11;8.30;99.90
36132;DHT22;22185;48.738;9.324;2023-04-01T04:32:13;8.40;99.90
36132;DHT22;22185;48.738;9.324;2023-04-01T04:34:14;8.30;99.90
36132;DHT22;22185;48.738;9.324;2023-04-01T04:36:16;8.30;99.90
36132;DHT22;22185;48.738;9.324;2023-04-01T04:38:18;8.20;99.90
36132;DHT22;22185;48.738;9.324;2023-04-01T04:40:20;8.20;99.90
36132;DHT22;22185;48.738;9.324;2023-04-01T04:42:22;8.10;99.90
36132;DHT22;22185;48.738;9.324;2023-04-01T04:44:23;8.10;99.90
36132;DHT22;22185;48.738;9.324;2023-04-01T04:46:25;8.00;99.90
36132;DHT22;22185;48.738;9.324;2023-04-01T04:48:27;8.10;99.90
36132;DHT22;22185;48.738;9.324;2023-04-01T04:50:29;8.10;99.90
36132;DHT22;22185;48.738;9.324;2023-04-01T04:52:31;8.10;99.90
36132;DHT22;22185;48.738;9.324;2023-04-01T04:54:32;8.10;99.90
36132;DHT22;22185;48.738;9.324;2023-04-01T04:56:34;8.20;99.90
36132;DHT22;22185;48.738;9.324;2023-04-01T04:58:37;8.20;99.90
36132;DHT22;22185;48.738;9.324;2023-04-01T05:00:39;8.20;99.90
36132;DHT22;22185;48.738;9.324;2023-04-01T05:02:41;8.20;99.90
36132;DHT22;22185;48.738;9.324;2023-04-01T05:04:43;8.20;99.90
36132;DHT22;22185;48.738;9.324;2023-04-01T05:06:45;8.20;99.90
36132;DHT22;22185;48.738;9.324;2023-04-01T05:08:46;8.20;99.90
36132;DHT22;22185;48.738;9.324;2023-04-01T05:10:48;8.20;99.90
36132;DHT22;22185;48.738;9.324;2023-04-01T05:12:50;8.30;99.90
36132;DHT22;22185;48.738;9.324;2023-04-01T05:14:54;8.30;99.90
36132;DHT22;22185;48.738;9.324;2023-04-01T05:16:56;8.40;99.90
36132;DHT22;22185;48.738;9.324;2023-04-01T05:18:58;8.40;99.90
36132;DHT22;22185;48.738;9.324;2023-04-01T05:21:00;8.40;99.90
36132;DHT22;22185;48.738;9.324;2023-04-01T05:23:01;8.40;99.90
36132;DHT22;22185;48.738;9.324;2023-04-01T05:25:03;8.40;99.90
36132;DHT22;22185;48.738;9.324;2023-04-01T05:27:05;8.50;99.90
36132;DHT22;22185;48.738;9.324;2023-04-01T05:29:06;8.50;99.90
36132;DHT22;22185;48.738;9.324;2023-04-01T05:31:08;8.50;99.90
36132;DHT22;22185;48.738;9.324;2023-04-01T05:33:11;8.50;99.90
36132;DHT22;22185;48.738;9.324;2023-04-01T05:35:13;8.50;99.90
36132;DHT22;22185;48.738;9.324;2023-04-01T05:37:20;8.50;99.90
36132;DHT22;22185;48.738;9.324;2023-04-01T05:39:26;8.50;99.90
36132;DHT22;22185;48.738;9.324;2023-04-01T05:41:28;8.50;99.90
36132;DHT22;22185;48.738;9.324;2023-04-01T05:43:29;8.60;99.90
36132;DHT22;22185;48.738;9.324;2023-04-01T05:45:34;8.60;99.90
36132;DHT22;22185;48.738;9.324;2023-04-01T05:47:36;8.70;99.90
36132;DHT22;22185;48.738;9.324;2023-04-01T05:49:37;8.80;99.90
36132;DHT22;22185;48.738;9.324;2023-04-01T05:51:39;8.90;99.90
36132;DHT22;22185;48.738;9.324;2023-04-01T05:53:41;8.80;99.90
36132;DHT22;22185;48.738;9.324;2023-04-01T05:55:43;8.80;99.90
36132;DHT22;22185;48.738;9.324;2023-04-01T05:57:45;8.80;99.90
36132;DHT22;22185;48.738;9.324;2023-04-01T05:59:47;8.90;99.90
36132;DHT22;22185;48.738;9.324;2023-04-01T06:01:49;8.90;99.90
36132;DHT22;22185;48.738;9.324;2023-04-01T06:03:51;9.00;99.90
36132;DHT22;22185;48.738;9.324;2023-04-01T06:05:53;9.00;99.90
36132;DHT22;22185;48.738;9.324;2023-04-01T06:07:55;9.00;99.90
36132;DHT22;22185;48.738;9.324;2023-04-01T06:09:59;9.10;99.90
36132;DHT22;22185;48.738;9.324;2023-04-01T06:19:02;9.20;99.90
36132;DHT22;22185;48.738;9.324;2023-04-01T06:27:39;9.40;99.90
36132;DHT22;22185;48.738;9.324;2023-04-01T06:34:25;9.50;99.90
36132;DHT22;22185;48.738;9.324;2023-04-01T06:52:05;9.80;99.90
36132;DHT22;22185;48.738;9.324;2023-04-01T06:54:11;9.80;99.90
36132;DHT22;22185;48.738;9.324;2023-04-01T06:56:15;9.80;99.90
36132;DHT22;22185;48.738;9.324;2023-04-01T07:00:29;9.80;99.90
36132;DHT22;22185;48.738;9.324;2023-04-01T07:02:39;9.80;99.90
36132;DHT22;22185;48.738;9.324;2023-04-01T07:04:44;9.90;99.90
36132;DHT22;22185;48.738;9.324;2023-04-01T07:06:52;9.90;99.90
36132;DHT22;22185;48.738;9.324;2023-04-01T07:08:55;9.90;99.90
36132;DHT22;22185;48.738;9.324;2023-04-01T07:11:02;9.90;99.90
36132;DHT22;22185;48.738;9.324;2023-04-01T07:13:06;10.00;99.90
36132;DHT22;22185;48.738;9.324;2023-04-01T07:17:23;10.00;99.90
36132;DHT22;22185;48.738;9.324;2023-04-01T07:21:33;10.00;99.90
36132;DHT22;22185;48.738;9.324;2023-04-01T07:23:38;10.10;99.90
36132;DHT22;22185;48.738;9.324;2023-04-01T07:25:41;10.10;99.90
36132;DHT22;22185;48.738;9.324;2023-04-01T07:27:45;10.20;99.90
36132;DHT22;22185;48.738;9.324;2023-04-01T07:29:47;10.20;99.90
36132;DHT22;22185;48.738;9.324;2023-04-01T07:34:12;10.20;99.90
36132;DHT22;22185;48.738;9.324;2023-04-01T07:38:34;10.10;99.90
36132;DHT22;22185;48.738;9.324;2023-04-01T07:45:01;10.20;99.90
36132;DHT22;22185;48.738;9.324;2023-04-01T07:47:10;10.20;99.90
36132;DHT22;22185;48.738;9.324;2023-04-01T07:51:32;10.20;99.90
36132;DHT22;22185;48.738;9.324;2023-04-01T07:53:41;10.20;99.90
36132;DHT22;22185;48.738;9.324;2023-04-01T08:04:34;10.40;99.90
36132;DHT22;22185;48.738;9.324;2023-04-01T08:06:57;10.30;99.90
36132;DHT22;22185;48.738;9.324;2023-04-01T08:09:16;10.40;99.90
36132;DHT22;22185;48.738;9.324;2023-04-01T08:13:45;10.40;99.90
36132;DHT22;22185;48.738;9.324;2023-04-01T08:22:26;10.50;99.90
36132;DHT22;22185;48.738;9.324;2023-04-01T08:24:32;10.40;99.90
36132;DHT22;22185;48.738;9.324;2023-04-01T08:26:48;10.40;99.90
36132;DHT22;22185;48.738;9.324;2023-04-01T08:29:02;10.50;99.90
36132;DHT22;22185;48.738;9.324;2023-04-01T08:35:24;10.50;99.90
36132;DHT22;22185;48.738;9.324;2023-04-01T08:37:30;10.50;99.90
36132;DHT22;22185;48.738;9.324;2023-04-01T08:40:10;10.60;99.90
36132;DHT22;22185;48.738;9.324;2023-04-01T08:48:35;10.60;99.90
36132;DHT22;22185;48.738;9.324;2023-04-01T08:50:47;10.70;99.90
36132;DHT22;22185;48.738;9.324;2023-04-01T09:04:25;10.00;99.90
36132;DHT22;22185;48.738;9.324;2023-04-01T09:06:34;9.80;99.90
36132;DHT22;22185;48.738;9.324;2023-04-01T09:10:59;9.70;99.90
36132;DHT22;22185;48.738;9.324;2023-04-01T09:13:27;9.70;99.90
36132;DHT22;22185;48.738;9.324;2023-04-01T09:15:27;9.70;99.90
36132;DHT22;22185;48.738;9.324;2023-04-01T09:17:48;9.70;99.90
36132;DHT22;22185;48.738;9.324;2023-04-01T09:27:20;10.00;99.90
36132;DHT22;22185;48.738;9.324;2023-04-01T09:29:08;10.10;99.90
36132;DHT22;22185;48.738;9.324;2023-04-01T09:31:26;10.20;99.90
36132;DHT22;22185;48.738;9.324;2023-04-01T09:36:01;10.30;99.90
36132;DHT22;22185;48.738;9.324;2023-04-01T09:38:21;10.40;99.90
36132;DHT22;22185;48.738;9.324;2023-04-01T09:45:07;10.50;99.90
36132;DHT22;22185;48.738;9.324;2023-04-01T09:54:03;10.20;99.90
36132;DHT22;22185;48.738;9.324;2023-04-01T10:12:11;10.20;99.90
36132;DHT22;22185;48.738;9.324;2023-04-01T10:17:26;10.10;99.90
36132;DHT22;22185;48.738;9.324;2023-04-01T10:47:20;10.80;99.90
36132;DHT22;22185;48.738;9.324;2023-04-01T10:58:38;11.10;99.90
36132;DHT22;22185;48.738;9.324;2023-04-01T11:16:44;11.00;99.90
36132;DHT22;22185;48.738;9.324;2023-04-01T11:27:56;11.00;99.90
36132;DHT22;22185;48.738;9.324;2023-04-01T11:32:13;11.30;99.90
36132;DHT22;22185;48.738;9.324;2023-04-01T11:36:26;11.30;99.90
36132;DHT22;22185;48.738;9.324;2023-04-01T11:43:08;11.70;99.90
36132;DHT22;22185;48.738;9.324;2023-04-01T11:45:31;11.70;99.90
36132;DHT22;22185;48.738;9.324;2023-04-01T11:50:14;11.50;99.90
36132;DHT22;22185;48.738;9.324;2023-04-01T11:52:22;11.40;99.90
36132;DHT22;22185;48.738;9.324;2023-04-01T11:57:01;11.50;99.90
36132;DHT22;22185;48.738;9.324;2023-04-01T12:03:17;11.50;99.90
36132;DHT22;22185;48.738;9.324;2023-04-01T12:09:49;11.30;99.90
36132;DHT22;22185;48.738;9.324;2023-04-01T12:20:29;11.20;99.90
36132;DHT22;22185;48.738;9.324;2023-04-01T12:22:53;11.30;99.90
36132;DHT22;22185;48.738;9.324;2023-04-01T12:40:16;11.30;99.90
36132;DHT22;22185;48.738;9.324;2023-04-01T12:47:00;11.70;99.90
36132;DHT22;22185;48.738;9.324;2023-04-01T12:55:48;13.10;99.90
36132;DHT22;22185;48.738;9.324;2023-04-01T12:58:03;12.60;99.90
36132;DHT22;22185;48.738;9.324;2023-04-01T13:00:20;12.30;99.90
36132;DHT22;22185;48.738;9.324;2023-04-01T13:02:32;12.70;99.90
36132;DHT22;22185;48.738;9.324;2023-04-01T13:04:48;12.70;99.90
36132;DHT22;22185;48.738;9.324;2023-04-01T13:09:01;12.40;99.90
36132;DHT22;22185;48.738;9.324;2023-04-01T13:13:22;12.60;99.90
36132;DHT22;22185;48.738;9.324;2023-04-01T13:22:08;12.20;99.90
36132;DHT22;22185;48.738;9.324;2023-04-01T13:28:35;12.10;99.90
36132;DHT22;22185;48.738;9.324;2023-04-01T13:41:25;12.00;99.90
36132;DHT22;22185;48.738;9.324;2023-04-01T13:43:42;12.00;99.90
36132;DHT22;22185;48.738;9.324;2023-04-01T13:45:59;11.90;99.90
36132;DHT22;22185;48.738;9.324;2023-04-01T13:55:06;12.50;99.90
36132;DHT22;22185;48.738;9.324;2023-04-01T13:59:29;12.20;99.90
36132;DHT22;22185;48.738;9.324;2023-04-01T14:01:48;12.40;99.90
36132;DHT22;22185;48.738;9.324;2023-04-01T14:04:00;12.40;99.90
36132;DHT22;22185;48.738;9.324;2023-04-01T14:15:04;12.80;99.90
36132;DHT22;22185;48.738;9.324;2023-04-01T14:21:41;13.10;99.90
36132;DHT22;22185;48.738;9.324;2023-04-01T14:24:04;13.00;99.90
36132;DHT22;22185;48.738;9.324;2023-04-01T14:28:22;12.40;99.90
36132;DHT22;22185;48.738;9.324;2023-04-01T14:36:56;12.00;99.90
36132;DHT22;22185;48.738;9.324;2023-04-01T14:50:13;12.00;99.90
36132;DHT22;22185;48.738;9.324;2023-04-01T14:52:24;11.90;99.90
36132;DHT22;22185;48.738;9.324;2023-04-01T14:54:32;11.80;99.90
36132;DHT22;22185;48.738;9.324;2023-04-01T14:56:41;11.70;99.90
36132;DHT22;22185;48.738;9.324;2023-04-01T14:58:44;11.70;99.90
36132;DHT22;22185;48.738;9.324;2023-04-01T15:00:48;11.70;99.90
36132;DHT22;22185;48.738;9.324;2023-04-01T15:04:54;11.70;99.90
36132;DHT22;22185;48.738;9.324;2023-04-01T15:24:39;11.50;99.90
36132;DHT22;22185;48.738;9.324;2023-04-01T15:26:46;11.50;99.90
36132;DHT22;22185;48.738;9.324;2023-04-01T15:31:45;11.50;99.90
36132;DHT22;22185;48.738;9.324;2023-04-01T15:39:54;11.50;99.90
36132;DHT22;22185;48.738;9.324;2023-04-01T15:46:46;11.40;99.90
36132;DHT22;22185;48.738;9.324;2023-04-01T15:53:10;11.40;99.90
36132;DHT22;22185;48.738;9.324;2023-04-01T15:55:26;11.50;99.90
36132;DHT22;22185;48.738;9.324;2023-04-01T16:12:58;11.40;99.90
36132;DHT22;22185;48.738;9.324;2023-04-01T16:15:14;11.40;99.90
36132;DHT22;22185;48.738;9.324;2023-04-01T16:19:52;11.50;99.90
36132;DHT22;22185;48.738;9.324;2023-04-01T16:21:57;11.50;99.90
36132;DHT22;22185;48.738;9.324;2023-04-01T16:24:12;11.40;99.90
36132;DHT22;22185;48.738;9.324;2023-04-01T16:28:29;11.30;99.90
36132;DHT22;22185;48.738;9.324;2023-04-01T16:32:44;11.30;99.90
36132;DHT22;22185;48.738;9.324;2023-04-01T16:37:12;11.20;99.90
36132;DHT22;22185;48.738;9.324;2023-04-01T16:41:31;11.10;99.90
36132;DHT22;22185;48.738;9.324;2023-04-01T16:45:41;11.10;99.90
36132;DHT22;22185;48.738;9.324;2023-04-01T16:48:05;11.10;99.90
36132;DHT22;22185;48.738;9.324;2023-04-01T16:50:17;11.10;99.90
36132;DHT22;22185;48.738;9.324;2023-04-01T16:52:36;11.10;99.90
36132;DHT22;22185;48.738;9.324;2023-04-01T16:56:50;11.00;99.90
36132;DHT22;22185;48.738;9.324;2023-04-01T17:01:03;11.00;99.90
36132;DHT22;22185;48.738;9.324;2023-04-01T17:03:17;11.00;99.90
36132;DHT22;22185;48.738;9.324;2023-04-01T17:05:20;11.10;99.90
36132;DHT22;22185;48.738;9.324;2023-04-01T17:09:42;11.10;99.90
36132;DHT22;22185;48.738;9.324;2023-04-01T17:12:00;11.10;99.90
36132;DHT22;22185;48.738;9.324;2023-04-01T17:22:54;11.10;99.90
36132;DHT22;22185;48.738;9.324;2023-04-01T17:29:25;11.10;99.90
36132;DHT22;22185;48.738;9.324;2023-04-01T17:44:49;11.00;99.90
36132;DHT22;22185;48.738;9.324;2023-04-01T18:04:26;11.00;99.90
36132;DHT22;22185;48.738;9.324;2023-04-01T18:10:55;10.90;99.90
36132;DHT22;22185;48.738;9.324;2023-04-01T18:22:20;10.90;99.90
36132;DHT22;22185;48.738;9.324;2023-04-01T18:24:02;10.90;99.90
36132;DHT22;22185;48.738;9.324;2023-04-01T18:26:19;10.90;99.90
36132;DHT22;22185;48.738;9.324;2023-04-01T18:30:33;10.90;99.90
36132;DHT22;22185;48.738;9.324;2023-04-01T18:37:12;10.80;99.90
36132;DHT22;22185;48.738;9.324;2023-04-01T18:39:37;10.70;99.90
36132;DHT22;22185;48.738;9.324;2023-04-01T18:52:39;10.50;99.90
36132;DHT22;22185;48.738;9.324;2023-04-01T18:54:45;10.40;99.90
36132;DHT22;22185;48.738;9.324;2023-04-01T18:56:49;10.30;99.90
36132;DHT22;22185;48.738;9.324;2023-04-01T18:59:09;10.30;99.90
36132;DHT22;22185;48.738;9.324;2023-04-01T19:03:23;10.20;99.90
36132;DHT22;22185;48.738;9.324;2023-04-01T19:05:39;10.20;99.90
36132;DHT22;22185;48.738;9.324;2023-04-01T19:07:54;10.10;99.90
36132;DHT22;22185;48.738;9.324;2023-04-01T19:09:59;10.10;99.90
36132;DHT22;22185;48.738;9.324;2023-04-01T19:21:07;9.90;99.90
36132;DHT22;22185;48.738;9.324;2023-04-01T19:25:35;9.70;99.90
36132;DHT22;22185;48.738;9.324;2023-04-01T19:27:41;9.60;99.90
36132;DHT22;22185;48.738;9.324;2023-04-01T19:40:51;9.40;99.90
36132;DHT22;22185;48.738;9.324;2023-04-01T19:42:58;9.40;99.90
36132;DHT22;22185;48.738;9.324;2023-04-01T19:51:59;9.40;99.90
36132;DHT22;22185;48.738;9.324;2023-04-01T19:56:12;9.40;99.90
36132;DHT22;22185;48.738;9.324;2023-04-01T20:00:37;9.40;99.90
36132;DHT22;22185;48.738;9.324;2023-04-01T20:04:53;9.50;99.90
36132;DHT22;22185;48.738;9.324;2023-04-01T20:07:13;9.40;99.90
36132;DHT22;22185;48.738;9.324;2023-04-01T20:11:43;9.40;99.90
36132;DHT22;22185;48.738;9.324;2023-04-01T20:16:00;9.40;99.90
36132;DHT22;22185;48.738;9.324;2023-04-01T20:18:12;9.40;99.90
36132;DHT22;22185;48.738;9.324;2023-04-01T20:20:18;9.40;99.90
36132;DHT22;22185;48.738;9.324;2023-04-01T20:24:46;9.40;99.90
36132;DHT22;22185;48.738;9.324;2023-04-01T20:26:50;9.40;99.90
36132;DHT22;22185;48.738;9.324;2023-04-01T20:31:12;9.30;99.90
36132;DHT22;22185;48.738;9.324;2023-04-01T20:35:44;9.20;99.90
36132;DHT22;22185;48.738;9.324;2023-04-01T20:37:58;9.20;99.90
36132;DHT22;22185;48.738;9.324;2023-04-01T20:46:48;9.20;99.90
36132;DHT22;22185;48.738;9.324;2023-04-01T20:51:06;9.20;99.90
36132;DHT22;22185;48.738;9.324;2023-04-01T20:53:12;9.20;99.90
36132;DHT22;22185;48.738;9.324;2023-04-01T20:55:21;9.30;99.90
36132;DHT22;22185;48.738;9.324;2023-04-01T20:59:44;9.20;99.90
36132;DHT22;22185;48.738;9.324;2023-04-01T21:08:26;9.10;99.90
36132;DHT22;22185;48.738;9.324;2023-04-01T21:12:50;9.20;99.90
36132;DHT22;22185;48.738;9.324;2023-04-01T21:25:34;9.30;99.90
36132;DHT22;22185;48.738;9.324;2023-04-01T21:30:07;9.30;99.90
36132;DHT22;22185;48.738;9.324;2023-04-01T21:32:32;9.20;99.90
36132;DHT22;22185;48.738;9.324;2023-04-01T21:43:28;9.20;99.90
36132;DHT22;22185;48.738;9.324;2023-04-01T22:06:05;9.20;99.90
36132;DHT22;22185;48.738;9.324;2023-04-01T22:24:12;9.30;99.90
36132;DHT22;22185;48.738;9.324;2023-04-01T22:26:19;9.30;99.90
36132;DHT22;22185;48.738;9.324;2023-04-01T22:28:29;9.30;99.90
36132;DHT22;22185;48.738;9.324;2023-04-01T22:30:34;9.20;99.90
36132;DHT22;22185;48.738;9.324;2023-04-01T22:34:57;9.20;99.90
36132;DHT22;22185;48.738;9.324;2023-04-01T22:37:04;9.20;99.90
36132;DHT22;22185;48.738;9.324;2023-04-01T22:43:28;9.20;99.90
36132;DHT22;22185;48.738;9.324;2023-04-01T22:47:48;9.30;99.90
36132;DHT22;22185;48.738;9.324;2023-04-01T22:49:59;9.30;99.90
36132;DHT22;22185;48.738;9.324;2023-04-01T22:57:12;9.20;99.90
36132;DHT22;22185;48.738;9.324;2023-04-01T23:01:12;9.20;99.90
36132;DHT22;22185;48.738;9.324;2023-04-01T23:03:23;9.20;99.90
36132;DHT22;22185;48.738;9.324;2023-04-01T23:05:29;9.20;99.90
36132;DHT22;22185;48.738;9.324;2023-04-01T23:09:47;9.20;99.90
36132;DHT22;22185;48.738;9.324;2023-04-01T23:16:24;9.20;99.90
36132;DHT22;22185;48.738;9.324;2023-04-01T23:18:31;9.20;99.90
36132;DHT22;22185;48.738;9.324;2023-04-01T23:20:59;9.20;99.90
36132;DHT22;22185;48.738;9.324;2023-04-01T23:29:25;9.20;99.90
36132;DHT22;22185;48.738;9.324;2023-04-01T23:33:38;9.10;99.90
36132;DHT22;22185;48.738;9.324;2023-04-01T23:35:47;9.20;99.90
36132;DHT22;22185;48.738;9.324;2023-04-01T23:37:49;9.20;99.90
36132;DHT22;22185;48.738;9.324;2023-04-01T23:39:54;9.20;99.90
36132;DHT22;22185;48.738;9.324;2023-04-01T23:42:02;9.10;99.90
36132;DHT22;22185;48.738;9.324;2023-04-01T23:44:05;9.20;99.90
36132;DHT22;22185;48.738;9.324;2023-04-01T23:46:10;9.10;99.90
36132;DHT22;22185;48.738;9.324;2023-04-01T23:48:14;9.10;99.90
36132;DHT22;22185;48.738;9.324;2023-04-01T23:50:21;9.10;99.90
36132;DHT22;22185;48.738;9.324;2023-04-01T23:52:27;9.00;99.90
36132;DHT22;22185;48.738;9.324;2023-04-01T23:56:48;9.00;99.90
36132;DHT22;22185;48.738;9.324;2023-04-01T23:58:50;9.00;99.90
